createdAt,value
2022-12-23T00:00:25.156Z,8.07
2022-12-23T00:01:25.466Z,8.07
2022-12-23T00:02:25.304Z,8.07
2022-12-23T00:03:25.245Z,8.07
2022-12-23T00:04:25.224Z,8.07
2022-12-23T00:05:25.100Z,8.09
2022-12-23T00:06:25.080Z,8.07
2022-12-23T00:07:25.063Z,8.06
2022-12-23T00:08:25.054Z,8.09
2022-12-23T00:09:25.039Z,8.07
2022-12-23T00:10:25.024Z,8.07
2022-12-23T00:11:25.009Z,8.09
2022-12-23T00:12:25.001Z,8.07
2022-12-23T00:13:24.994Z,8.07
2022-12-23T00:14:24.978Z,8.09
2022-12-23T00:15:24.958Z,8.07
2022-12-23T00:16:25.025Z,8.06
2022-12-23T00:17:25.019Z,8.07
2022-12-23T00:18:24.934Z,8.07
2022-12-23T00:19:24.906Z,8.07
2022-12-23T00:20:24.973Z,8.06
2022-12-23T00:21:24.880Z,8.07
2022-12-23T00:22:24.868Z,8.07
2022-12-23T00:23:24.863Z,8.07
2022-12-23T00:24:24.840Z,8.09
2022-12-23T00:25:24.841Z,8.07
2022-12-23T00:26:24.824Z,8.09
2022-12-23T00:27:24.799Z,8.07
2022-12-23T00:28:24.788Z,8.07
2022-12-23T00:29:24.777Z,8.07
2022-12-23T00:30:24.774Z,8.09
2022-12-23T00:31:24.810Z,8.09
2022-12-23T00:32:24.735Z,8.09
2022-12-23T00:33:24.726Z,8.07
2022-12-23T00:34:24.708Z,8.09
2022-12-23T00:35:24.693Z,8.06
2022-12-23T00:36:24.849Z,8.07
2022-12-23T00:37:24.668Z,8.06
2022-12-23T00:38:24.659Z,8.06
2022-12-23T00:39:24.641Z,8.06
2022-12-23T00:40:24.661Z,8.07
2022-12-23T00:41:24.638Z,8.06
2022-12-23T00:42:24.603Z,8.09
2022-12-23T00:43:24.590Z,8.09
2022-12-23T00:44:24.578Z,8.07
2022-12-23T00:45:24.572Z,8.07
2022-12-23T00:46:24.589Z,8.07
2022-12-23T00:47:24.538Z,8.09
2022-12-23T00:48:24.525Z,8.07
2022-12-23T00:49:24.514Z,8.09
2022-12-23T00:50:24.499Z,8.07
2022-12-23T00:51:24.485Z,8.07
2022-12-23T00:52:24.495Z,8.06
2022-12-23T00:53:24.458Z,8.07
2022-12-23T00:54:24.453Z,8.07
2022-12-23T00:55:24.432Z,8.06
2022-12-23T00:56:24.420Z,8.07
2022-12-23T00:57:24.405Z,8.07
2022-12-23T00:58:24.395Z,8.09
2022-12-23T00:59:24.379Z,8.07
2022-12-23T01:00:24.368Z,8.06
2022-12-23T01:01:24.459Z,8.09
2022-12-23T01:02:24.513Z,8.07
2022-12-23T01:03:24.373Z,8.07
2022-12-23T01:04:24.319Z,8.09
2022-12-23T01:05:24.352Z,8.07
2022-12-23T01:06:24.289Z,8.09
2022-12-23T01:07:24.280Z,8.09
2022-12-23T01:08:24.283Z,8.07
2022-12-23T01:09:24.247Z,8.09
2022-12-23T01:10:24.247Z,8.07
2022-12-23T01:11:24.230Z,8.09
2022-12-23T01:12:24.211Z,8.09
2022-12-23T01:13:24.200Z,8.07
2022-12-23T01:14:24.181Z,8.09
2022-12-23T01:15:24.179Z,8.09
2022-12-23T01:16:24.251Z,8.07
2022-12-23T01:17:24.270Z,8.09
2022-12-23T01:18:24.129Z,8.09
2022-12-23T01:19:24.119Z,8.07
2022-12-23T01:20:24.106Z,8.09
2022-12-23T01:21:24.090Z,8.09
2022-12-23T01:22:24.083Z,8.09
2022-12-23T01:23:24.063Z,8.09
2022-12-23T01:24:24.072Z,8.07
2022-12-23T01:25:24.070Z,8.09
2022-12-23T01:26:24.024Z,8.09
2022-12-23T01:27:24.020Z,8.09
2022-12-23T01:28:23.998Z,8.10
2022-12-23T01:29:23.994Z,8.11
2022-12-23T01:30:23.982Z,8.09
2022-12-23T01:31:23.992Z,8.09
2022-12-23T01:32:23.951Z,8.10
2022-12-23T01:33:23.933Z,8.09
2022-12-23T01:34:23.920Z,8.10
2022-12-23T01:35:23.909Z,8.09
2022-12-23T01:36:23.891Z,8.07
2022-12-23T01:37:23.881Z,8.10
2022-12-23T01:38:23.866Z,8.09
2022-12-23T01:39:23.868Z,8.07
2022-12-23T01:40:23.872Z,8.09
2022-12-23T01:41:23.828Z,8.07
2022-12-23T01:42:23.814Z,8.10
2022-12-23T01:43:23.799Z,8.09
2022-12-23T01:44:23.819Z,8.07
2022-12-23T01:45:23.781Z,8.09
2022-12-23T01:46:23.822Z,8.07
2022-12-23T01:47:23.747Z,8.09
2022-12-23T01:48:23.731Z,8.09
2022-12-23T01:49:23.718Z,8.09
2022-12-23T01:50:23.705Z,8.10
2022-12-23T01:51:23.697Z,8.09
2022-12-23T01:52:23.681Z,8.10
2022-12-23T01:53:23.675Z,8.09
2022-12-23T01:54:23.652Z,8.11
2022-12-23T01:55:23.690Z,8.09
2022-12-23T01:56:23.653Z,8.09
2022-12-23T01:57:23.636Z,8.10
2022-12-23T01:58:23.626Z,8.11
2022-12-23T01:59:23.600Z,8.10
2022-12-23T02:00:23.579Z,8.09
2022-12-23T02:01:23.663Z,8.09
2022-12-23T02:02:23.707Z,8.10
2022-12-23T02:03:23.577Z,8.10
2022-12-23T02:04:23.519Z,8.09
2022-12-23T02:05:23.542Z,8.09
2022-12-23T02:06:23.495Z,8.09
2022-12-23T02:07:23.486Z,8.10
2022-12-23T02:08:29.471Z,8.09
2022-12-23T02:09:23.448Z,8.10
2022-12-23T02:10:23.438Z,8.10
2022-12-23T02:11:23.421Z,8.10
2022-12-23T02:12:23.436Z,8.10
2022-12-23T02:13:23.398Z,8.11
2022-12-23T02:14:23.382Z,8.10
2022-12-23T02:15:23.369Z,8.09
2022-12-23T02:16:23.402Z,8.10
2022-12-23T02:17:23.342Z,8.10
2022-12-23T02:18:23.332Z,8.10
2022-12-23T02:19:23.316Z,8.11
2022-12-23T02:20:23.304Z,8.10
2022-12-23T02:21:23.301Z,8.10
2022-12-23T02:22:23.287Z,8.10
2022-12-23T02:23:23.264Z,8.11
2022-12-23T02:24:23.257Z,8.11
2022-12-23T02:25:23.249Z,8.11
2022-12-23T02:26:23.223Z,8.11
2022-12-23T02:27:23.211Z,8.11
2022-12-23T02:28:23.228Z,8.13
2022-12-23T02:29:23.203Z,8.13
2022-12-23T02:30:23.176Z,8.10
2022-12-23T02:31:23.267Z,8.11
2022-12-23T02:32:23.145Z,8.09
2022-12-23T02:33:23.133Z,8.11
2022-12-23T02:34:23.116Z,8.10
2022-12-23T02:35:23.112Z,8.10
2022-12-23T02:36:23.092Z,8.10
2022-12-23T02:37:23.079Z,8.10
2022-12-23T02:38:23.084Z,8.11
2022-12-23T02:39:23.071Z,8.13
2022-12-23T02:40:23.038Z,8.10
2022-12-23T02:41:23.024Z,8.10
2022-12-23T02:42:23.009Z,8.11
2022-12-23T02:43:22.997Z,8.11
2022-12-23T02:44:23.011Z,8.11
2022-12-23T02:45:22.974Z,8.13
2022-12-23T02:46:23.018Z,8.13
2022-12-23T02:47:22.947Z,8.13
2022-12-23T02:48:22.933Z,8.13
2022-12-23T02:49:22.922Z,8.11
2022-12-23T02:50:22.908Z,8.13
2022-12-23T02:51:22.894Z,8.13
2022-12-23T02:52:22.878Z,8.11
2022-12-23T02:53:22.882Z,8.11
2022-12-23T02:54:22.854Z,8.11
2022-12-23T02:55:22.852Z,8.11
2022-12-23T02:56:22.842Z,8.11
2022-12-23T02:57:22.816Z,8.11
2022-12-23T02:58:22.810Z,8.13
2022-12-23T02:59:22.793Z,8.11
2022-12-23T03:00:22.852Z,8.11
2022-12-23T03:01:22.875Z,8.11
2022-12-23T03:02:22.921Z,8.13
2022-12-23T03:03:22.834Z,8.11
2022-12-23T03:04:22.720Z,8.11
2022-12-23T03:05:22.709Z,8.11
2022-12-23T03:06:22.691Z,8.10
2022-12-23T03:07:22.683Z,8.10
2022-12-23T03:08:22.668Z,8.11
2022-12-23T03:09:22.659Z,8.10
2022-12-23T03:10:22.638Z,8.10
2022-12-23T03:11:22.629Z,8.10
2022-12-23T03:12:22.618Z,8.10
2022-12-23T03:13:22.604Z,8.10
2022-12-23T03:14:22.587Z,8.10
2022-12-23T03:15:22.579Z,8.11
2022-12-23T03:16:22.661Z,8.11
2022-12-23T03:17:22.555Z,8.10
2022-12-23T03:18:22.532Z,8.13
2022-12-23T03:19:22.521Z,8.11
2022-12-23T03:20:22.508Z,8.13
2022-12-23T03:21:22.569Z,8.11
2022-12-23T03:22:22.479Z,8.10
2022-12-23T03:23:22.470Z,8.11
2022-12-23T03:24:22.451Z,8.11
2022-12-23T03:25:22.442Z,8.11
2022-12-23T03:26:22.427Z,8.11
2022-12-23T03:27:22.417Z,8.13
2022-12-23T03:28:22.402Z,8.13
2022-12-23T03:29:22.387Z,8.13
2022-12-23T03:30:22.371Z,8.13
2022-12-23T03:31:22.457Z,8.13
2022-12-23T03:32:22.366Z,8.11
2022-12-23T03:33:22.351Z,8.13
2022-12-23T03:34:22.319Z,8.13
2022-12-23T03:35:22.311Z,8.13
2022-12-23T03:36:22.291Z,8.13
2022-12-23T03:37:22.284Z,8.11
2022-12-23T03:38:22.265Z,8.13
2022-12-23T03:39:22.260Z,8.13
2022-12-23T03:40:22.237Z,8.13
2022-12-23T03:41:22.233Z,8.13
2022-12-23T03:42:22.223Z,8.13
2022-12-23T03:43:22.201Z,8.13
2022-12-23T03:44:22.186Z,8.13
2022-12-23T03:45:38.612Z,8.13
2022-12-23T03:46:23.283Z,8.11
2022-12-23T03:47:22.148Z,8.11
2022-12-23T03:48:22.160Z,8.11
2022-12-23T03:49:22.119Z,8.10
2022-12-23T03:50:22.108Z,8.11
2022-12-23T03:51:22.098Z,8.11
2022-12-23T03:52:22.090Z,8.14
2022-12-23T03:53:22.068Z,8.13
2022-12-23T03:54:22.058Z,8.13
2022-12-23T03:55:22.049Z,8.11
2022-12-23T03:56:22.025Z,8.14
2022-12-23T03:57:22.017Z,8.13
2022-12-23T03:58:22.001Z,8.13
2022-12-23T03:59:22.001Z,8.11
2022-12-23T04:00:21.974Z,8.13
2022-12-23T04:01:22.013Z,8.13
2022-12-23T04:02:22.043Z,8.13
2022-12-23T04:03:22.020Z,8.14
2022-12-23T04:04:22.031Z,8.14
2022-12-23T04:05:21.929Z,8.11
2022-12-23T04:06:21.896Z,8.11
2022-12-23T04:07:21.882Z,8.11
2022-12-23T04:08:21.871Z,8.13
2022-12-23T04:09:22.632Z,8.13
2022-12-23T04:10:21.839Z,8.13
2022-12-23T04:11:21.829Z,8.13
2022-12-23T04:12:21.815Z,8.10
2022-12-23T04:13:21.806Z,8.13
2022-12-23T04:14:21.790Z,8.13
2022-12-23T04:15:21.778Z,8.13
2022-12-23T04:16:21.827Z,8.14
2022-12-23T04:17:21.765Z,8.13
2022-12-23T04:18:21.741Z,8.13
2022-12-23T04:19:21.729Z,8.14
2022-12-23T04:20:21.736Z,8.14
2022-12-23T04:21:21.701Z,8.13
2022-12-23T04:22:21.684Z,8.14
2022-12-23T04:23:21.684Z,8.13
2022-12-23T04:24:21.661Z,8.14
2022-12-23T04:25:21.648Z,8.14
2022-12-23T04:26:21.635Z,8.14
2022-12-23T04:27:21.621Z,8.14
2022-12-23T04:28:21.605Z,8.14
2022-12-23T04:29:21.600Z,8.13
2022-12-23T04:30:21.588Z,8.13
2022-12-23T04:31:21.659Z,8.14
2022-12-23T04:32:21.570Z,8.13
2022-12-23T04:33:21.549Z,8.13
2022-12-23T04:34:21.532Z,8.14
2022-12-23T04:35:21.531Z,8.11
2022-12-23T04:36:21.535Z,8.14
2022-12-23T04:37:21.500Z,8.13
2022-12-23T04:38:21.483Z,8.13
2022-12-23T04:39:21.473Z,8.13
2022-12-23T04:40:21.472Z,8.11
2022-12-23T04:41:21.444Z,8.11
2022-12-23T04:42:21.420Z,8.13
2022-12-23T04:43:21.417Z,8.11
2022-12-23T04:44:21.435Z,8.13
2022-12-23T04:45:21.388Z,8.13
2022-12-23T04:46:21.448Z,8.14
2022-12-23T04:47:21.380Z,8.13
2022-12-23T04:48:21.361Z,8.13
2022-12-23T04:49:21.364Z,8.16
2022-12-23T04:50:21.327Z,8.14
2022-12-23T04:51:21.326Z,8.16
2022-12-23T04:52:21.321Z,8.14
2022-12-23T04:53:21.277Z,8.14
2022-12-23T04:54:21.277Z,8.13
2022-12-23T04:55:21.254Z,8.14
2022-12-23T04:56:21.238Z,8.14
2022-12-23T04:57:21.224Z,8.14
2022-12-23T04:58:21.209Z,8.14
2022-12-23T04:59:21.209Z,8.14
2022-12-23T05:00:21.184Z,8.14
2022-12-23T05:01:21.241Z,8.13
2022-12-23T05:02:21.426Z,8.14
2022-12-23T05:03:21.269Z,8.14
2022-12-23T05:04:21.168Z,8.14
2022-12-23T05:05:21.129Z,8.14
2022-12-23T05:06:21.114Z,8.14
2022-12-23T05:07:21.121Z,8.13
2022-12-23T05:08:21.188Z,8.14
2022-12-23T05:09:21.078Z,8.14
2022-12-23T05:10:21.065Z,8.14
2022-12-23T05:11:21.041Z,8.14
2022-12-23T05:12:21.036Z,8.16
2022-12-23T05:13:21.024Z,8.14
2022-12-23T05:14:21.013Z,8.16
2022-12-23T05:15:20.988Z,8.14
2022-12-23T05:16:21.046Z,8.14
2022-12-23T05:17:20.970Z,8.14
2022-12-23T05:18:20.958Z,8.13
2022-12-23T05:19:20.949Z,8.14
2022-12-23T05:20:20.953Z,8.13
2022-12-23T05:21:20.924Z,8.14
2022-12-23T05:22:20.909Z,8.14
2022-12-23T05:23:20.890Z,8.14
2022-12-23T05:24:20.910Z,8.14
2022-12-23T05:25:20.864Z,8.13
2022-12-23T05:26:20.869Z,8.14
2022-12-23T05:27:20.856Z,8.13
2022-12-23T05:28:20.826Z,8.13
2022-12-23T05:29:20.812Z,8.14
2022-12-23T05:30:20.800Z,8.13
2022-12-23T05:31:20.819Z,8.13
2022-12-23T05:32:20.784Z,8.13
2022-12-23T05:33:20.805Z,8.14
2022-12-23T05:34:20.737Z,8.14
2022-12-23T05:35:20.729Z,8.13
2022-12-23T05:36:20.717Z,8.13
2022-12-23T05:37:20.716Z,8.13
2022-12-23T05:38:20.695Z,8.13
2022-12-23T05:39:20.674Z,8.13
2022-12-23T05:40:23.926Z,8.13
2022-12-23T05:41:21.699Z,8.13
2022-12-23T05:42:20.656Z,8.14
2022-12-23T05:43:20.636Z,8.13
2022-12-23T05:44:20.621Z,8.13
2022-12-23T05:45:20.610Z,8.13
2022-12-23T05:46:26.149Z,8.14
2022-12-23T05:47:22.567Z,8.13
2022-12-23T05:48:20.563Z,8.11
2022-12-23T05:49:20.546Z,8.13
2022-12-23T05:50:20.537Z,8.13
2022-12-23T05:51:20.523Z,8.14
2022-12-23T05:52:20.511Z,8.13
2022-12-23T05:53:20.499Z,8.13
2022-12-23T05:54:20.487Z,8.14
2022-12-23T05:55:20.469Z,8.14
2022-12-23T05:56:20.471Z,8.14
2022-12-23T05:57:20.446Z,8.14
2022-12-23T05:58:20.423Z,8.13
2022-12-23T05:59:20.411Z,8.14
2022-12-23T06:00:20.398Z,8.14
2022-12-23T06:01:20.381Z,8.16
2022-12-23T06:02:20.539Z,8.14
2022-12-23T06:03:20.611Z,8.13
2022-12-23T06:04:20.397Z,8.14
2022-12-23T06:05:20.353Z,8.13
2022-12-23T06:06:20.317Z,8.14
2022-12-23T06:07:20.306Z,8.14
2022-12-23T06:08:20.300Z,8.13
2022-12-23T06:09:20.279Z,8.14
2022-12-23T06:10:20.275Z,8.13
2022-12-23T06:11:20.252Z,8.16
2022-12-23T06:12:20.275Z,8.16
2022-12-23T06:13:20.227Z,8.16
2022-12-23T06:14:25.169Z,8.14
2022-12-23T06:15:22.207Z,8.16
2022-12-23T06:16:20.224Z,8.16
2022-12-23T06:17:20.174Z,8.17
2022-12-23T06:18:20.161Z,8.14
2022-12-23T06:19:20.150Z,8.16
2022-12-23T06:20:21.100Z,8.16
2022-12-23T06:21:20.120Z,8.16
2022-12-23T06:22:20.108Z,8.17
2022-12-23T06:23:20.095Z,8.16
2022-12-23T06:24:20.085Z,8.16
2022-12-23T06:25:20.067Z,8.16
2022-12-23T06:26:20.058Z,8.16
2022-12-23T06:27:20.042Z,8.16
2022-12-23T06:28:20.060Z,8.14
2022-12-23T06:29:20.016Z,8.16
2022-12-23T06:30:20.012Z,8.14
2022-12-23T06:31:20.061Z,8.17
2022-12-23T06:32:19.991Z,8.16
2022-12-23T06:33:19.962Z,8.14
2022-12-23T06:34:19.961Z,8.14
2022-12-23T06:35:19.937Z,8.13
2022-12-23T06:36:19.925Z,8.16
2022-12-23T06:37:19.930Z,8.14
2022-12-23T06:38:19.897Z,8.13
2022-12-23T06:39:19.888Z,8.16
2022-12-23T06:40:19.881Z,8.13
2022-12-23T06:41:19.870Z,8.16
2022-12-23T06:42:19.846Z,8.14
2022-12-23T06:43:19.836Z,8.14
2022-12-23T06:44:19.852Z,8.13
2022-12-23T06:45:19.811Z,8.16
2022-12-23T06:46:19.865Z,8.17
2022-12-23T06:47:19.788Z,8.16
2022-12-23T06:48:19.777Z,8.14
2022-12-23T06:49:19.763Z,8.14
2022-12-23T06:50:19.820Z,8.16
2022-12-23T06:51:19.739Z,8.16
2022-12-23T06:52:19.724Z,8.17
2022-12-23T06:53:19.699Z,8.16
2022-12-23T06:54:19.693Z,8.16
2022-12-23T06:55:19.681Z,8.17
2022-12-23T06:56:19.669Z,8.16
2022-12-23T06:57:19.655Z,8.16
2022-12-23T06:58:19.642Z,8.14
2022-12-23T06:59:19.629Z,8.14
2022-12-23T07:00:19.644Z,8.17
2022-12-23T07:01:19.620Z,8.16
2022-12-23T07:02:19.855Z,8.17
2022-12-23T07:03:19.710Z,8.17
2022-12-23T07:04:19.555Z,8.17
2022-12-23T07:05:19.555Z,8.17
2022-12-23T07:06:19.538Z,8.16
2022-12-23T07:07:19.530Z,8.16
2022-12-23T07:08:19.511Z,8.17
2022-12-23T07:09:19.486Z,8.16
2022-12-23T07:10:19.475Z,8.17
2022-12-23T07:11:19.477Z,8.16
2022-12-23T07:12:19.453Z,8.17
2022-12-23T07:13:19.435Z,8.19
2022-12-23T07:14:19.428Z,8.17
2022-12-23T07:15:19.406Z,8.19
2022-12-23T07:16:19.459Z,8.17
2022-12-23T07:17:19.394Z,8.16
2022-12-23T07:18:19.377Z,8.16
2022-12-23T07:19:19.354Z,8.17
2022-12-23T07:20:19.353Z,8.17
2022-12-23T07:21:26.702Z,8.17
2022-12-23T07:22:21.328Z,8.17
2022-12-23T07:23:19.312Z,8.19
2022-12-23T07:24:19.303Z,8.19
2022-12-23T07:25:19.328Z,8.17
2022-12-23T07:26:19.280Z,8.17
2022-12-23T07:27:19.257Z,8.17
2022-12-23T07:28:19.247Z,8.17
2022-12-23T07:29:19.239Z,8.17
2022-12-23T07:30:19.224Z,8.17
2022-12-23T07:31:19.233Z,8.19
2022-12-23T07:32:19.209Z,8.17
2022-12-23T07:33:19.186Z,8.17
2022-12-23T07:34:19.179Z,8.20
2022-12-23T07:35:19.155Z,8.17
2022-12-23T07:36:19.145Z,8.19
2022-12-23T07:37:19.128Z,8.19
2022-12-23T07:38:19.115Z,8.19
2022-12-23T07:39:19.101Z,8.19
2022-12-23T07:40:19.110Z,8.19
2022-12-23T07:41:19.078Z,8.20
2022-12-23T07:42:45.108Z,8.19
2022-12-23T07:43:21.048Z,8.19
2022-12-23T07:44:19.036Z,8.20
2022-12-23T07:45:19.019Z,8.19
2022-12-23T07:46:19.095Z,8.19
2022-12-23T07:47:18.994Z,8.19
2022-12-23T07:48:19.014Z,8.19
2022-12-23T07:49:18.968Z,8.20
2022-12-23T07:50:18.955Z,8.19
2022-12-23T07:51:18.938Z,8.19
2022-12-23T07:52:18.933Z,8.19
2022-12-23T07:53:18.918Z,8.19
2022-12-23T07:54:18.905Z,8.17
2022-12-23T07:55:18.893Z,8.17
2022-12-23T07:56:18.890Z,8.19
2022-12-23T07:57:18.867Z,8.19
2022-12-23T07:58:18.852Z,8.19
2022-12-23T07:59:18.857Z,8.17
2022-12-23T08:00:18.832Z,8.17
2022-12-23T08:01:18.841Z,8.17
2022-12-23T08:02:18.983Z,8.19
2022-12-23T08:03:18.986Z,8.17
2022-12-23T08:04:18.872Z,8.19
2022-12-23T08:05:18.945Z,8.19
2022-12-23T08:06:18.746Z,8.20
2022-12-23T08:07:18.757Z,8.19
2022-12-23T08:08:18.730Z,8.19
2022-12-23T08:09:18.708Z,8.19
2022-12-23T08:10:18.702Z,8.21
2022-12-23T08:11:18.678Z,8.19
2022-12-23T08:12:18.668Z,8.20
2022-12-23T08:13:18.652Z,8.20
2022-12-23T08:14:18.643Z,8.20
2022-12-23T08:15:18.624Z,8.20
2022-12-23T08:16:18.663Z,8.24
2022-12-23T08:17:18.783Z,8.21
2022-12-23T08:18:18.588Z,8.24
2022-12-23T08:19:18.575Z,8.21
2022-12-23T08:20:18.605Z,8.21
2022-12-23T08:21:18.550Z,8.24
2022-12-23T08:22:18.537Z,8.24
2022-12-23T08:23:24.392Z,8.24
2022-12-23T08:24:19.564Z,8.25
2022-12-23T08:25:18.546Z,8.25
2022-12-23T08:26:18.495Z,8.24
2022-12-23T08:27:18.473Z,8.24
2022-12-23T08:28:18.457Z,8.24
2022-12-23T08:29:18.449Z,8.21
2022-12-23T08:30:18.434Z,8.24
2022-12-23T08:31:18.599Z,8.24
2022-12-23T08:32:18.403Z,8.24
2022-12-23T08:33:18.388Z,8.21
2022-12-23T08:34:18.381Z,8.24
2022-12-23T08:35:18.396Z,8.24
2022-12-23T08:36:22.724Z,8.24
2022-12-23T08:37:18.336Z,8.24
2022-12-23T08:38:18.325Z,8.25
2022-12-23T08:39:18.310Z,8.24
2022-12-23T08:40:18.297Z,8.25
2022-12-23T08:41:18.273Z,8.27
2022-12-23T08:42:18.284Z,8.25
2022-12-23T08:43:18.266Z,8.27
2022-12-23T08:44:18.238Z,8.28
2022-12-23T08:45:18.230Z,8.28
2022-12-23T08:46:18.298Z,8.29
2022-12-23T08:47:18.205Z,8.29
2022-12-23T08:48:18.197Z,8.28
2022-12-23T08:49:18.178Z,8.29
2022-12-23T08:50:18.167Z,8.31
2022-12-23T08:51:18.159Z,8.29
2022-12-23T08:52:18.170Z,8.31
2022-12-23T08:53:18.128Z,8.29
2022-12-23T08:54:18.114Z,8.29
2022-12-23T08:55:18.104Z,8.31
2022-12-23T08:56:18.097Z,8.32
2022-12-23T08:57:18.077Z,8.31
2022-12-23T08:58:18.063Z,8.31
2022-12-23T08:59:19.623Z,8.32
2022-12-23T09:00:18.039Z,8.32
2022-12-23T09:01:18.058Z,8.32
2022-12-23T09:02:18.153Z,8.34
2022-12-23T09:03:18.086Z,8.32
2022-12-23T09:04:17.987Z,8.32
2022-12-23T09:05:17.970Z,8.32
2022-12-23T09:06:21.835Z,8.32
2022-12-23T09:07:19.937Z,8.34
2022-12-23T09:08:17.948Z,8.34
2022-12-23T09:09:17.908Z,8.32
2022-12-23T09:10:17.902Z,8.34
2022-12-23T09:11:17.889Z,8.34
2022-12-23T09:12:17.877Z,8.34
2022-12-23T09:13:26.373Z,8.34
2022-12-23T09:14:18.892Z,8.34
2022-12-23T09:15:17.831Z,8.34
2022-12-23T09:16:17.883Z,8.34
2022-12-23T09:17:17.869Z,8.32
2022-12-23T09:18:17.811Z,8.35
2022-12-23T09:19:17.792Z,8.32
2022-12-23T09:20:17.783Z,8.34
2022-12-23T09:21:17.759Z,8.34
2022-12-23T09:22:17.738Z,8.34
2022-12-23T09:23:17.731Z,8.34
2022-12-23T09:24:17.752Z,8.34
2022-12-23T09:25:17.706Z,8.35
2022-12-23T09:26:17.686Z,8.34
2022-12-23T09:27:17.679Z,8.34
2022-12-23T09:28:17.667Z,8.34
2022-12-23T09:29:17.654Z,8.34
2022-12-23T09:30:17.641Z,8.32
2022-12-23T09:31:17.717Z,8.34
2022-12-23T09:32:17.615Z,8.34
2022-12-23T09:33:17.603Z,8.31
2022-12-23T09:34:17.597Z,8.32
2022-12-23T09:35:17.576Z,8.32
2022-12-23T09:36:17.561Z,8.32
2022-12-23T09:37:17.556Z,8.31
2022-12-23T09:38:17.543Z,8.29
2022-12-23T09:39:17.521Z,8.32
2022-12-23T09:40:17.524Z,8.32
2022-12-23T09:41:17.501Z,8.29
2022-12-23T09:42:17.486Z,8.31
2022-12-23T09:43:17.464Z,8.32
2022-12-23T09:44:17.456Z,8.34
2022-12-23T09:45:17.457Z,8.32
2022-12-23T09:46:17.489Z,8.32
2022-12-23T09:47:17.429Z,8.34
2022-12-23T09:48:17.407Z,8.34
2022-12-23T09:49:17.386Z,8.34
2022-12-23T09:50:17.379Z,8.34
2022-12-23T09:51:17.357Z,8.34
2022-12-23T09:52:17.344Z,8.35
2022-12-23T09:53:17.332Z,8.35
2022-12-23T09:54:17.795Z,8.37
2022-12-23T09:55:17.306Z,8.35
2022-12-23T09:56:17.325Z,8.35
2022-12-23T09:57:17.281Z,8.35
2022-12-23T09:58:17.263Z,8.37
2022-12-23T09:59:17.266Z,8.37
2022-12-23T10:00:17.255Z,8.37
2022-12-23T10:01:17.334Z,8.39
2022-12-23T10:02:17.326Z,8.37
2022-12-23T10:03:17.520Z,8.39
2022-12-23T10:04:17.317Z,8.39
2022-12-23T10:05:17.194Z,8.40
2022-12-23T10:06:17.173Z,8.40
2022-12-23T10:07:17.157Z,8.35
2022-12-23T10:08:17.161Z,8.37
2022-12-23T10:09:17.131Z,8.40
2022-12-23T10:10:17.115Z,8.39
2022-12-23T10:11:17.106Z,8.37
2022-12-23T10:12:19.695Z,8.39
2022-12-23T10:13:19.078Z,8.40
2022-12-23T10:14:17.085Z,8.42
2022-12-23T10:15:17.053Z,8.42
2022-12-23T10:16:17.093Z,8.40
2022-12-23T10:17:17.029Z,8.40
2022-12-23T10:18:17.013Z,8.40
2022-12-23T10:19:16.998Z,8.40
2022-12-23T10:20:16.987Z,8.42
2022-12-23T10:21:16.972Z,8.40
2022-12-23T10:22:16.962Z,8.42
2022-12-23T10:23:16.943Z,8.40
2022-12-23T10:24:16.936Z,8.42
2022-12-23T10:25:16.924Z,8.40
2022-12-23T10:26:17.107Z,8.40
2022-12-23T10:27:16.891Z,8.40
2022-12-23T10:28:16.904Z,8.40
2022-12-23T10:29:19.072Z,8.40
2022-12-23T10:31:39.153Z,8.42
2022-12-23T10:32:17.939Z,8.40
2022-12-23T10:33:16.882Z,8.42
2022-12-23T10:34:16.792Z,8.40
2022-12-23T10:35:16.788Z,8.40
2022-12-23T10:36:16.819Z,8.40
2022-12-23T10:37:16.765Z,8.40
2022-12-23T10:38:16.751Z,8.42
2022-12-23T10:39:16.729Z,8.40
2022-12-23T10:40:16.729Z,8.42
2022-12-23T10:41:16.721Z,8.42
2022-12-23T10:42:16.687Z,8.40
2022-12-23T10:43:16.684Z,8.40
2022-12-23T10:44:16.700Z,8.40
2022-12-23T10:45:16.652Z,8.40
2022-12-23T10:46:16.675Z,8.42
2022-12-23T10:47:16.636Z,8.42
2022-12-23T10:48:16.618Z,8.44
2022-12-23T10:49:16.604Z,8.45
2022-12-23T10:50:16.591Z,8.45
2022-12-23T10:51:16.580Z,8.45
2022-12-23T10:52:16.562Z,8.45
2022-12-23T10:53:16.553Z,8.45
2022-12-23T10:54:16.535Z,8.47
2022-12-23T10:55:16.526Z,8.45
2022-12-23T10:56:16.501Z,8.45
2022-12-23T10:57:16.510Z,8.47
2022-12-23T10:58:16.485Z,8.47
2022-12-23T10:59:16.535Z,8.47
2022-12-23T11:00:16.543Z,8.47
2022-12-23T11:01:26.076Z,8.45
2022-12-23T11:02:17.668Z,8.47
2022-12-23T11:03:16.633Z,8.45
2022-12-23T11:04:16.419Z,8.48
2022-12-23T11:05:16.403Z,8.47
2022-12-23T11:06:16.379Z,8.47
2022-12-23T11:07:43.512Z,8.45
2022-12-23T11:08:18.353Z,8.45
2022-12-23T11:09:16.332Z,8.45
2022-12-23T11:10:16.422Z,8.47
2022-12-23T11:11:16.315Z,8.47
2022-12-23T11:12:16.303Z,8.47
2022-12-23T11:13:16.289Z,8.48
2022-12-23T11:14:16.274Z,8.47
2022-12-23T11:15:16.263Z,8.45
2022-12-23T11:16:16.387Z,8.45
2022-12-23T11:17:16.276Z,8.47
2022-12-23T11:18:16.233Z,8.47
2022-12-23T11:19:16.210Z,8.48
2022-12-23T11:20:16.306Z,8.47
2022-12-23T11:21:16.186Z,8.47
2022-12-23T11:22:16.169Z,8.47
2022-12-23T11:23:16.156Z,8.47
2022-12-23T11:24:16.142Z,8.47
2022-12-23T11:25:16.132Z,8.47
2022-12-23T11:26:16.116Z,8.47
2022-12-23T11:27:16.118Z,8.47
2022-12-23T11:28:16.092Z,8.50
2022-12-23T11:29:16.084Z,8.47
2022-12-23T11:30:16.064Z,8.47
2022-12-23T11:31:16.135Z,8.48
2022-12-23T11:32:16.062Z,8.48
2022-12-23T11:33:16.026Z,8.50
2022-12-23T11:34:16.017Z,8.48
2022-12-23T11:35:16.038Z,8.48
2022-12-23T11:36:15.988Z,8.50
2022-12-23T11:37:15.973Z,8.48
2022-12-23T11:38:15.956Z,8.48
2022-12-23T11:39:16.244Z,8.48
2022-12-23T11:40:15.934Z,8.48
2022-12-23T11:41:15.920Z,8.48
2022-12-23T11:42:15.907Z,8.47
2022-12-23T11:43:15.894Z,8.48
2022-12-23T11:44:15.881Z,8.47
2022-12-23T11:45:15.871Z,8.47
2022-12-23T11:46:15.997Z,8.45
2022-12-23T11:47:15.839Z,8.47
2022-12-23T11:48:15.843Z,8.47
2022-12-23T11:49:15.814Z,8.45
2022-12-23T11:50:15.798Z,8.45
2022-12-23T11:51:15.785Z,8.45
2022-12-23T11:52:15.769Z,8.47
2022-12-23T11:53:15.756Z,8.45
2022-12-23T11:54:15.757Z,8.45
2022-12-23T11:55:15.728Z,8.45
2022-12-23T11:56:15.761Z,8.45
2022-12-23T11:57:15.735Z,8.44
2022-12-23T11:58:15.688Z,8.45
2022-12-23T11:59:15.677Z,8.44
2022-12-23T12:00:15.673Z,8.45
2022-12-23T12:01:15.660Z,8.44
2022-12-23T12:02:15.695Z,8.44
2022-12-23T12:03:15.656Z,8.44
2022-12-23T12:04:15.637Z,8.45
2022-12-23T12:05:15.603Z,8.44
2022-12-23T12:06:15.588Z,8.44
2022-12-23T12:07:15.577Z,8.44
2022-12-23T12:08:15.558Z,8.45
2022-12-23T12:09:15.548Z,8.45
2022-12-23T12:10:15.534Z,8.44
2022-12-23T12:11:15.550Z,8.45
2022-12-23T12:12:15.502Z,8.45
2022-12-23T12:13:15.495Z,8.44
2022-12-23T12:14:15.481Z,8.44
2022-12-23T12:15:15.471Z,8.45
2022-12-23T12:16:15.537Z,8.45
2022-12-23T12:17:15.521Z,8.45
2022-12-23T12:18:15.440Z,8.44
2022-12-23T12:19:15.617Z,8.45
2022-12-23T12:20:15.553Z,8.44
2022-12-23T12:21:15.400Z,8.45
2022-12-23T12:22:15.374Z,8.44
2022-12-23T12:23:15.371Z,8.44
2022-12-23T12:24:18.916Z,8.42
2022-12-23T12:25:15.347Z,8.42
2022-12-23T12:26:15.332Z,8.42
2022-12-23T12:27:15.309Z,8.42
2022-12-23T12:28:15.304Z,8.42
2022-12-23T12:29:15.289Z,8.40
2022-12-23T12:30:15.268Z,8.42
2022-12-23T12:31:15.376Z,8.45
2022-12-23T12:32:15.242Z,8.45
2022-12-23T12:33:15.235Z,8.45
2022-12-23T12:34:15.219Z,8.44
2022-12-23T12:35:15.216Z,8.45
2022-12-23T12:36:15.257Z,8.44
2022-12-23T12:37:15.180Z,8.44
2022-12-23T12:38:15.166Z,8.44
2022-12-23T12:39:15.157Z,8.44
2022-12-23T12:40:15.138Z,8.42
2022-12-23T12:41:15.139Z,8.44
2022-12-23T12:42:15.127Z,8.44
2022-12-23T12:43:15.102Z,8.44
2022-12-23T12:44:15.083Z,8.45
2022-12-23T12:45:15.080Z,8.44
2022-12-23T12:46:15.121Z,8.45
2022-12-23T12:47:44.506Z,8.45
2022-12-23T12:48:18.647Z,8.45
2022-12-23T12:49:15.019Z,8.45
2022-12-23T12:50:15.005Z,8.45
2022-12-23T12:51:14.991Z,8.45
2022-12-23T12:52:15.000Z,8.45
2022-12-23T12:53:14.967Z,8.45
2022-12-23T12:54:14.957Z,8.47
2022-12-23T12:55:14.939Z,8.47
2022-12-23T12:56:14.927Z,8.45
2022-12-23T12:57:14.912Z,8.45
2022-12-23T12:58:14.905Z,8.45
2022-12-23T12:59:14.896Z,8.45
2022-12-23T19:23:22.306Z,8.37
2022-12-23T19:24:22.281Z,8.34
2022-12-23T19:25:22.269Z,8.35
2022-12-23T19:26:22.261Z,8.35
2022-12-23T19:27:22.247Z,8.35
2022-12-23T19:28:22.262Z,8.34
2022-12-23T19:29:22.221Z,8.35
2022-12-23T19:30:22.216Z,8.34
2022-12-23T19:31:22.303Z,8.34
2022-12-23T19:32:22.181Z,8.34
2022-12-23T19:33:22.161Z,8.34
2022-12-23T19:34:22.139Z,8.34
2022-12-23T19:35:22.153Z,8.35
2022-12-23T19:36:22.167Z,8.32
2022-12-23T19:37:22.112Z,8.34
2022-12-23T19:38:22.109Z,8.35
2022-12-23T19:39:22.120Z,8.35
2022-12-23T19:40:22.071Z,8.37
2022-12-23T19:41:22.056Z,8.34
2022-12-23T19:42:22.046Z,8.35